sensor_id;sensor_type;location;lat;lon;timestamp;P1;durP1;ratioP1;P2;durP2;ratioP2
20230;SDS011;10274;49.022;9.338;2022-08-19T00:01:16;14.03;;;12.87;;
20230;SDS011;10274;49.022;9.338;2022-08-19T00:03:43;13.77;;;12.37;;
20230;SDS011;10274;49.022;9.338;2022-08-19T00:06:09;13.30;;;12.20;;
20230;SDS011;10274;49.022;9.338;2022-08-19T00:08:38;14.17;;;11.60;;
20230;SDS011;10274;49.022;9.338;2022-08-19T00:11:05;13.00;;;11.80;;
20230;SDS011;10274;49.022;9.338;2022-08-19T00:13:32;13.00;;;11.80;;
20230;SDS011;10274;49.022;9.338;2022-08-19T00:15:59;13.00;;;11.83;;
20230;SDS011;10274;49.022;9.338;2022-08-19T00:18:26;13.47;;;12.23;;
20230;SDS011;10274;49.022;9.338;2022-08-19T00:20:53;13.43;;;12.27;;
20230;SDS011;10274;49.022;9.338;2022-08-19T00:23:20;13.77;;;12.37;;
20230;SDS011;10274;49.022;9.338;2022-08-19T00:25:48;13.70;;;12.50;;
20230;SDS011;10274;49.022;9.338;2022-08-19T00:28:15;12.93;;;11.73;;
20230;SDS011;10274;49.022;9.338;2022-08-19T00:30:42;12.67;;;11.57;;
20230;SDS011;10274;49.022;9.338;2022-08-19T00:33:08;13.40;;;12.23;;
20230;SDS011;10274;49.022;9.338;2022-08-19T00:35:35;12.60;;;11.50;;
20230;SDS011;10274;49.022;9.338;2022-08-19T00:38:03;13.17;;;11.97;;
20230;SDS011;10274;49.022;9.338;2022-08-19T00:40:31;12.53;;;11.43;;
20230;SDS011;10274;49.022;9.338;2022-08-19T00:43:00;12.50;;;11.50;;
20230;SDS011;10274;49.022;9.338;2022-08-19T00:45:27;12.07;;;10.97;;
20230;SDS011;10274;49.022;9.338;2022-08-19T00:47:57;12.40;;;11.40;;
20230;SDS011;10274;49.022;9.338;2022-08-19T00:50:24;11.73;;;10.77;;
20230;SDS011;10274;49.022;9.338;2022-08-19T00:52:51;11.97;;;10.97;;
20230;SDS011;10274;49.022;9.338;2022-08-19T00:55:20;12.10;;;11.07;;
20230;SDS011;10274;49.022;9.338;2022-08-19T00:57:51;12.30;;;11.30;;
20230;SDS011;10274;49.022;9.338;2022-08-19T01:00:24;12.80;;;11.70;;
20230;SDS011;10274;49.022;9.338;2022-08-19T01:02:52;12.03;;;11.03;;
20230;SDS011;10274;49.022;9.338;2022-08-19T01:05:20;12.53;;;11.40;;
20230;SDS011;10274;49.022;9.338;2022-08-19T01:07:48;13.07;;;11.97;;
20230;SDS011;10274;49.022;9.338;2022-08-19T01:10:17;12.23;;;11.17;;
20230;SDS011;10274;49.022;9.338;2022-08-19T01:12:46;12.20;;;11.10;;
20230;SDS011;10274;49.022;9.338;2022-08-19T01:15:14;12.63;;;11.53;;
20230;SDS011;10274;49.022;9.338;2022-08-19T01:17:46;12.03;;;11.07;;
20230;SDS011;10274;49.022;9.338;2022-08-19T01:20:17;12.37;;;11.37;;
20230;SDS011;10274;49.022;9.338;2022-08-19T01:22:49;12.60;;;11.50;;
20230;SDS011;10274;49.022;9.338;2022-08-19T01:25:18;12.57;;;11.50;;
20230;SDS011;10274;49.022;9.338;2022-08-19T01:27:48;12.63;;;11.57;;
20230;SDS011;10274;49.022;9.338;2022-08-19T01:30:17;12.40;;;11.30;;
20230;SDS011;10274;49.022;9.338;2022-08-19T01:32:46;12.20;;;11.20;;
20230;SDS011;10274;49.022;9.338;2022-08-19T01:35:13;12.03;;;10.87;;
20230;SDS011;10274;49.022;9.338;2022-08-19T01:37:42;12.57;;;11.10;;
20230;SDS011;10274;49.022;9.338;2022-08-19T01:40:12;12.27;;;11.27;;
20230;SDS011;10274;49.022;9.338;2022-08-19T01:42:39;12.30;;;11.30;;
20230;SDS011;10274;49.022;9.338;2022-08-19T01:45:06;12.37;;;11.10;;
20230;SDS011;10274;49.022;9.338;2022-08-19T01:47:34;12.13;;;11.07;;
20230;SDS011;10274;49.022;9.338;2022-08-19T01:50:01;13.07;;;11.77;;
20230;SDS011;10274;49.022;9.338;2022-08-19T01:52:29;13.73;;;12.43;;
20230;SDS011;10274;49.022;9.338;2022-08-19T01:54:56;13.07;;;11.87;;
20230;SDS011;10274;49.022;9.338;2022-08-19T01:57:24;12.70;;;11.67;;
20230;SDS011;10274;49.022;9.338;2022-08-19T01:59:50;12.83;;;11.63;;
20230;SDS011;10274;49.022;9.338;2022-08-19T02:02:17;12.97;;;11.90;;
20230;SDS011;10274;49.022;9.338;2022-08-19T02:04:44;13.33;;;12.13;;
20230;SDS011;10274;49.022;9.338;2022-08-19T02:07:11;13.13;;;11.83;;
20230;SDS011;10274;49.022;9.338;2022-08-19T02:09:38;14.13;;;12.83;;
20230;SDS011;10274;49.022;9.338;2022-08-19T02:12:05;12.67;;;11.57;;
20230;SDS011;10274;49.022;9.338;2022-08-19T02:14:34;12.47;;;11.40;;
20230;SDS011;10274;49.022;9.338;2022-08-19T02:17:01;12.70;;;11.47;;
20230;SDS011;10274;49.022;9.338;2022-08-19T02:19:28;13.37;;;12.17;;
20230;SDS011;10274;49.022;9.338;2022-08-19T02:21:56;12.90;;;11.80;;
20230;SDS011;10274;49.022;9.338;2022-08-19T02:24:23;12.73;;;11.63;;
20230;SDS011;10274;49.022;9.338;2022-08-19T02:26:50;12.20;;;11.10;;
20230;SDS011;10274;49.022;9.338;2022-08-19T02:29:17;13.10;;;12.00;;
20230;SDS011;10274;49.022;9.338;2022-08-19T02:31:45;14.07;;;12.77;;
20230;SDS011;10274;49.022;9.338;2022-08-19T02:34:12;12.50;;;11.40;;
20230;SDS011;10274;49.022;9.338;2022-08-19T02:36:38;12.70;;;11.60;;
20230;SDS011;10274;49.022;9.338;2022-08-19T02:39:05;12.80;;;11.60;;
20230;SDS011;10274;49.022;9.338;2022-08-19T02:41:31;12.77;;;11.67;;
20230;SDS011;10274;49.022;9.338;2022-08-19T02:43:59;12.87;;;11.67;;
20230;SDS011;10274;49.022;9.338;2022-08-19T02:46:30;13.63;;;12.40;;
20230;SDS011;10274;49.022;9.338;2022-08-19T02:49:02;12.43;;;11.43;;
20230;SDS011;10274;49.022;9.338;2022-08-19T02:51:31;12.60;;;11.50;;
20230;SDS011;10274;49.022;9.338;2022-08-19T02:54:01;12.50;;;11.40;;
20230;SDS011;10274;49.022;9.338;2022-08-19T02:56:29;13.07;;;11.77;;
20230;SDS011;10274;49.022;9.338;2022-08-19T02:58:56;13.03;;;11.93;;
20230;SDS011;10274;49.022;9.338;2022-08-19T03:01:24;12.83;;;11.83;;
20230;SDS011;10274;49.022;9.338;2022-08-19T03:03:52;12.43;;;11.33;;
20230;SDS011;10274;49.022;9.338;2022-08-19T03:06:20;14.37;;;13.17;;
20230;SDS011;10274;49.022;9.338;2022-08-19T03:08:47;12.73;;;11.63;;
20230;SDS011;10274;49.022;9.338;2022-08-19T03:11:15;13.67;;;12.47;;
20230;SDS011;10274;49.022;9.338;2022-08-19T03:13:43;13.20;;;12.00;;
20230;SDS011;10274;49.022;9.338;2022-08-19T03:16:10;14.70;;;13.40;;
20230;SDS011;10274;49.022;9.338;2022-08-19T03:18:37;12.90;;;11.80;;
20230;SDS011;10274;49.022;9.338;2022-08-19T03:21:05;13.63;;;12.40;;
20230;SDS011;10274;49.022;9.338;2022-08-19T03:23:33;13.70;;;12.40;;
20230;SDS011;10274;49.022;9.338;2022-08-19T03:26:02;13.13;;;12.03;;
20230;SDS011;10274;49.022;9.338;2022-08-19T03:28:29;14.23;;;13.03;;
20230;SDS011;10274;49.022;9.338;2022-08-19T03:30:57;13.97;;;12.73;;
20230;SDS011;10274;49.022;9.338;2022-08-19T03:33:26;14.20;;;13.00;;
20230;SDS011;10274;49.022;9.338;2022-08-19T03:36:01;14.03;;;12.83;;
20230;SDS011;10274;49.022;9.338;2022-08-19T03:38:30;14.00;;;12.63;;
20230;SDS011;10274;49.022;9.338;2022-08-19T03:40:59;13.93;;;12.73;;
20230;SDS011;10274;49.022;9.338;2022-08-19T03:43:28;14.80;;;13.50;;
20230;SDS011;10274;49.022;9.338;2022-08-19T03:46:01;14.80;;;13.43;;
20230;SDS011;10274;49.022;9.338;2022-08-19T03:48:31;13.47;;;12.37;;
20230;SDS011;10274;49.022;9.338;2022-08-19T03:50:58;14.17;;;12.87;;
20230;SDS011;10274;49.022;9.338;2022-08-19T03:53:26;14.60;;;13.30;;
20230;SDS011;10274;49.022;9.338;2022-08-19T03:55:53;14.33;;;13.07;;
20230;SDS011;10274;49.022;9.338;2022-08-19T03:58:22;14.10;;;12.77;;
20230;SDS011;10274;49.022;9.338;2022-08-19T04:00:49;14.60;;;13.30;;
20230;SDS011;10274;49.022;9.338;2022-08-19T04:03:16;13.53;;;12.23;;
20230;SDS011;10274;49.022;9.338;2022-08-19T04:05:43;15.03;;;13.73;;
20230;SDS011;10274;49.022;9.338;2022-08-19T04:08:10;14.00;;;12.70;;
20230;SDS011;10274;49.022;9.338;2022-08-19T04:10:37;14.60;;;13.40;;
20230;SDS011;10274;49.022;9.338;2022-08-19T04:13:05;14.50;;;13.20;;
20230;SDS011;10274;49.022;9.338;2022-08-19T04:15:38;14.60;;;13.30;;
20230;SDS011;10274;49.022;9.338;2022-08-19T04:18:06;14.80;;;13.30;;
20230;SDS011;10274;49.022;9.338;2022-08-19T04:20:37;15.07;;;13.50;;
20230;SDS011;10274;49.022;9.338;2022-08-19T04:23:05;14.60;;;13.30;;
20230;SDS011;10274;49.022;9.338;2022-08-19T04:25:34;15.53;;;14.13;;
20230;SDS011;10274;49.022;9.338;2022-08-19T04:28:03;15.00;;;13.70;;
20230;SDS011;10274;49.022;9.338;2022-08-19T04:30:29;14.60;;;13.30;;
20230;SDS011;10274;49.022;9.338;2022-08-19T04:32:57;15.73;;;14.23;;
20230;SDS011;10274;49.022;9.338;2022-08-19T04:35:24;14.83;;;13.43;;
20230;SDS011;10274;49.022;9.338;2022-08-19T04:37:51;15.33;;;13.93;;
20230;SDS011;10274;49.022;9.338;2022-08-19T04:40:18;15.90;;;14.40;;
20230;SDS011;10274;49.022;9.338;2022-08-19T04:43:02;15.93;;;14.43;;
20230;SDS011;10274;49.022;9.338;2022-08-19T04:45:29;14.70;;;13.27;;
20230;SDS011;10274;49.022;9.338;2022-08-19T04:47:55;16.53;;;14.83;;
20230;SDS011;10274;49.022;9.338;2022-08-19T04:50:25;16.40;;;14.97;;
20230;SDS011;10274;49.022;9.338;2022-08-19T04:52:52;16.43;;;14.87;;
20230;SDS011;10274;49.022;9.338;2022-08-19T04:55:20;15.77;;;14.17;;
20230;SDS011;10274;49.022;9.338;2022-08-19T04:57:47;16.27;;;14.77;;
20230;SDS011;10274;49.022;9.338;2022-08-19T05:00:13;16.93;;;15.23;;
20230;SDS011;10274;49.022;9.338;2022-08-19T05:02:40;17.33;;;15.63;;
20230;SDS011;10274;49.022;9.338;2022-08-19T05:05:08;15.80;;;14.30;;
20230;SDS011;10274;49.022;9.338;2022-08-19T05:07:35;16.93;;;15.33;;
20230;SDS011;10274;49.022;9.338;2022-08-19T05:10:02;16.77;;;15.17;;
20230;SDS011;10274;49.022;9.338;2022-08-19T05:12:30;16.40;;;14.77;;
20230;SDS011;10274;49.022;9.338;2022-08-19T05:14:57;18.67;;;15.40;;
20230;SDS011;10274;49.022;9.338;2022-08-19T05:17:25;17.20;;;15.50;;
20230;SDS011;10274;49.022;9.338;2022-08-19T05:19:53;19.17;;;17.13;;
20230;SDS011;10274;49.022;9.338;2022-08-19T05:22:53;18.60;;;16.63;;
20230;SDS011;10274;49.022;9.338;2022-08-19T05:25:20;22.53;;;18.10;;
20230;SDS011;10274;49.022;9.338;2022-08-19T05:27:48;19.67;;;16.83;;
20230;SDS011;10274;49.022;9.338;2022-08-19T05:30:15;18.57;;;16.50;;
20230;SDS011;10274;49.022;9.338;2022-08-19T05:32:43;20.33;;;17.43;;
20230;SDS011;10274;49.022;9.338;2022-08-19T05:35:09;20.97;;;16.47;;
20230;SDS011;10274;49.022;9.338;2022-08-19T05:37:36;19.00;;;17.00;;
20230;SDS011;10274;49.022;9.338;2022-08-19T05:40:07;17.60;;;15.90;;
20230;SDS011;10274;49.022;9.338;2022-08-19T05:42:35;19.20;;;17.20;;
20230;SDS011;10274;49.022;9.338;2022-08-19T05:45:02;18.83;;;16.93;;
20230;SDS011;10274;49.022;9.338;2022-08-19T05:47:29;17.97;;;16.17;;
20230;SDS011;10274;49.022;9.338;2022-08-19T05:49:56;18.17;;;16.23;;
20230;SDS011;10274;49.022;9.338;2022-08-19T05:52:23;18.43;;;16.53;;
20230;SDS011;10274;49.022;9.338;2022-08-19T05:54:52;19.40;;;17.40;;
20230;SDS011;10274;49.022;9.338;2022-08-19T05:57:21;19.43;;;17.43;;
20230;SDS011;10274;49.022;9.338;2022-08-19T05:59:48;20.57;;;18.50;;
20230;SDS011;10274;49.022;9.338;2022-08-19T06:02:16;20.57;;;17.67;;
20230;SDS011;10274;49.022;9.338;2022-08-19T06:04:43;20.33;;;17.80;;
20230;SDS011;10274;49.022;9.338;2022-08-19T06:07:09;21.83;;;19.53;;
20230;SDS011;10274;49.022;9.338;2022-08-19T06:09:36;20.27;;;18.13;;
20230;SDS011;10274;49.022;9.338;2022-08-19T06:12:03;21.87;;;18.73;;
20230;SDS011;10274;49.022;9.338;2022-08-19T06:14:32;20.50;;;18.50;;
20230;SDS011;10274;49.022;9.338;2022-08-19T06:17:00;20.40;;;17.93;;
20230;SDS011;10274;49.022;9.338;2022-08-19T06:19:27;20.87;;;17.50;;
20230;SDS011;10274;49.022;9.338;2022-08-19T06:21:56;19.40;;;17.17;;
20230;SDS011;10274;49.022;9.338;2022-08-19T06:24:25;21.73;;;19.07;;
20230;SDS011;10274;49.022;9.338;2022-08-19T06:26:54;22.57;;;18.50;;
20230;SDS011;10274;49.022;9.338;2022-08-19T06:29:22;19.80;;;17.80;;
20230;SDS011;10274;49.022;9.338;2022-08-19T06:31:54;19.70;;;17.60;;
20230;SDS011;10274;49.022;9.338;2022-08-19T06:34:23;21.17;;;18.97;;
20230;SDS011;10274;49.022;9.338;2022-08-19T06:36:52;19.60;;;17.13;;
20230;SDS011;10274;49.022;9.338;2022-08-19T06:39:20;19.13;;;17.17;;
20230;SDS011;10274;49.022;9.338;2022-08-19T06:41:49;19.30;;;17.40;;
20230;SDS011;10274;49.022;9.338;2022-08-19T06:44:19;19.63;;;17.57;;
20230;SDS011;10274;49.022;9.338;2022-08-19T06:46:48;23.33;;;17.93;;
20230;SDS011;10274;49.022;9.338;2022-08-19T06:49:16;22.07;;;18.37;;
20230;SDS011;10274;49.022;9.338;2022-08-19T06:51:43;24.07;;;19.00;;
20230;SDS011;10274;49.022;9.338;2022-08-19T06:54:12;20.80;;;18.57;;
20230;SDS011;10274;49.022;9.338;2022-08-19T06:56:40;21.90;;;19.43;;
20230;SDS011;10274;49.022;9.338;2022-08-19T06:59:09;21.50;;;18.67;;
20230;SDS011;10274;49.022;9.338;2022-08-19T07:01:36;20.50;;;18.33;;
20230;SDS011;10274;49.022;9.338;2022-08-19T07:04:05;19.43;;;17.40;;
20230;SDS011;10274;49.022;9.338;2022-08-19T07:06:34;20.63;;;18.53;;
20230;SDS011;10274;49.022;9.338;2022-08-19T07:09:02;21.77;;;19.57;;
20230;SDS011;10274;49.022;9.338;2022-08-19T07:11:29;21.00;;;18.77;;
20230;SDS011;10274;49.022;9.338;2022-08-19T07:13:57;21.00;;;18.83;;
20230;SDS011;10274;49.022;9.338;2022-08-19T07:16:24;20.40;;;18.23;;
20230;SDS011;10274;49.022;9.338;2022-08-19T07:18:52;19.33;;;16.93;;
20230;SDS011;10274;49.022;9.338;2022-08-19T07:21:21;19.67;;;17.57;;
20230;SDS011;10274;49.022;9.338;2022-08-19T07:23:50;20.37;;;17.60;;
20230;SDS011;10274;49.022;9.338;2022-08-19T07:26:18;18.80;;;16.80;;
20230;SDS011;10274;49.022;9.338;2022-08-19T07:28:47;18.03;;;16.37;;
20230;SDS011;10274;49.022;9.338;2022-08-19T07:31:15;18.73;;;16.83;;
20230;SDS011;10274;49.022;9.338;2022-08-19T07:33:44;18.07;;;16.23;;
20230;SDS011;10274;49.022;9.338;2022-08-19T07:36:12;18.87;;;16.27;;
20230;SDS011;10274;49.022;9.338;2022-08-19T07:38:41;17.40;;;15.10;;
20230;SDS011;10274;49.022;9.338;2022-08-19T07:41:11;20.93;;;16.37;;
20230;SDS011;10274;49.022;9.338;2022-08-19T07:43:39;20.57;;;16.10;;
20230;SDS011;10274;49.022;9.338;2022-08-19T07:46:08;17.87;;;15.17;;
20230;SDS011;10274;49.022;9.338;2022-08-19T07:48:35;16.00;;;14.00;;
20230;SDS011;10274;49.022;9.338;2022-08-19T07:51:02;16.20;;;14.50;;
20230;SDS011;10274;49.022;9.338;2022-08-19T07:53:30;15.77;;;13.90;;
20230;SDS011;10274;49.022;9.338;2022-08-19T07:55:58;15.80;;;14.03;;
20230;SDS011;10274;49.022;9.338;2022-08-19T07:58:31;16.00;;;13.03;;
20230;SDS011;10274;49.022;9.338;2022-08-19T08:00:59;17.13;;;15.43;;
20230;SDS011;10274;49.022;9.338;2022-08-19T08:03:26;17.03;;;13.63;;
20230;SDS011;10274;49.022;9.338;2022-08-19T08:06:07;18.87;;;13.40;;
20230;SDS011;10274;49.022;9.338;2022-08-19T08:08:52;16.20;;;14.50;;
20230;SDS011;10274;49.022;9.338;2022-08-19T08:11:36;15.17;;;13.67;;
20230;SDS011;10274;49.022;9.338;2022-08-19T08:14:05;16.40;;;14.70;;
20230;SDS011;10274;49.022;9.338;2022-08-19T08:16:33;16.47;;;14.70;;
20230;SDS011;10274;49.022;9.338;2022-08-19T08:19:01;15.57;;;13.70;;
20230;SDS011;10274;49.022;9.338;2022-08-19T08:21:30;16.53;;;14.27;;
20230;SDS011;10274;49.022;9.338;2022-08-19T08:23:57;16.60;;;13.40;;
20230;SDS011;10274;49.022;9.338;2022-08-19T08:26:23;14.40;;;13.00;;
20230;SDS011;10274;49.022;9.338;2022-08-19T08:28:50;13.93;;;12.53;;
20230;SDS011;10274;49.022;9.338;2022-08-19T08:31:19;16.80;;;13.73;;
20230;SDS011;10274;49.022;9.338;2022-08-19T08:33:46;16.00;;;14.27;;
20230;SDS011;10274;49.022;9.338;2022-08-19T08:36:13;16.10;;;12.67;;
20230;SDS011;10274;49.022;9.338;2022-08-19T08:38:40;14.30;;;12.90;;
20230;SDS011;10274;49.022;9.338;2022-08-19T08:41:09;13.60;;;12.20;;
20230;SDS011;10274;49.022;9.338;2022-08-19T08:43:44;15.00;;;13.33;;
20230;SDS011;10274;49.022;9.338;2022-08-19T08:46:13;15.53;;;12.70;;
20230;SDS011;10274;49.022;9.338;2022-08-19T08:48:47;14.93;;;13.07;;
20230;SDS011;10274;49.022;9.338;2022-08-19T08:51:19;14.50;;;13.10;;
20230;SDS011;10274;49.022;9.338;2022-08-19T08:53:50;13.70;;;12.20;;
20230;SDS011;10274;49.022;9.338;2022-08-19T08:56:18;15.23;;;12.40;;
20230;SDS011;10274;49.022;9.338;2022-08-19T08:58:48;13.23;;;10.87;;
20230;SDS011;10274;49.022;9.338;2022-08-19T09:01:20;17.47;;;12.03;;
20230;SDS011;10274;49.022;9.338;2022-08-19T09:03:48;14.00;;;11.53;;
20230;SDS011;10274;49.022;9.338;2022-08-19T09:06:18;14.90;;;11.30;;
20230;SDS011;10274;49.022;9.338;2022-08-19T09:08:55;11.90;;;10.70;;
20230;SDS011;10274;49.022;9.338;2022-08-19T09:11:31;12.53;;;11.10;;
20230;SDS011;10274;49.022;9.338;2022-08-19T09:14:11;12.73;;;10.63;;
20230;SDS011;10274;49.022;9.338;2022-08-19T09:16:57;12.17;;;10.10;;
20230;SDS011;10274;49.022;9.338;2022-08-19T09:19:26;12.07;;;10.03;;
20230;SDS011;10274;49.022;9.338;2022-08-19T09:21:53;13.27;;;10.30;;
20230;SDS011;10274;49.022;9.338;2022-08-19T09:24:20;11.87;;;10.60;;
20230;SDS011;10274;49.022;9.338;2022-08-19T09:26:47;13.73;;;10.63;;
20230;SDS011;10274;49.022;9.338;2022-08-19T09:29:13;12.73;;;10.97;;
20230;SDS011;10274;49.022;9.338;2022-08-19T09:31:40;11.30;;;10.10;;
20230;SDS011;10274;49.022;9.338;2022-08-19T09:34:08;13.40;;;10.73;;
20230;SDS011;10274;49.022;9.338;2022-08-19T09:36:36;11.80;;;10.10;;
20230;SDS011;10274;49.022;9.338;2022-08-19T09:39:04;11.80;;;10.70;;
20230;SDS011;10274;49.022;9.338;2022-08-19T09:41:32;12.03;;;10.80;;
20230;SDS011;10274;49.022;9.338;2022-08-19T09:43:58;15.20;;;11.70;;
20230;SDS011;10274;49.022;9.338;2022-08-19T09:46:26;13.97;;;12.57;;
20230;SDS011;10274;49.022;9.338;2022-08-19T09:48:59;12.57;;;11.30;;
20230;SDS011;10274;49.022;9.338;2022-08-19T09:51:26;11.73;;;10.53;;
20230;SDS011;10274;49.022;9.338;2022-08-19T09:53:58;11.97;;;10.43;;
20230;SDS011;10274;49.022;9.338;2022-08-19T09:56:26;11.93;;;10.70;;
20230;SDS011;10274;49.022;9.338;2022-08-19T09:58:53;13.20;;;9.77;;
20230;SDS011;10274;49.022;9.338;2022-08-19T10:01:21;12.07;;;10.37;;
20230;SDS011;10274;49.022;9.338;2022-08-19T10:03:51;11.07;;;10.00;;
20230;SDS011;10274;49.022;9.338;2022-08-19T10:06:20;11.23;;;10.13;;
20230;SDS011;10274;49.022;9.338;2022-08-19T10:08:48;11.30;;;10.17;;
20230;SDS011;10274;49.022;9.338;2022-08-19T10:11:18;10.77;;;9.40;;
20230;SDS011;10274;49.022;9.338;2022-08-19T10:13:46;10.13;;;9.23;;
20230;SDS011;10274;49.022;9.338;2022-08-19T10:16:13;15.10;;;10.30;;
20230;SDS011;10274;49.022;9.338;2022-08-19T10:18:42;10.90;;;9.47;;
20230;SDS011;10274;49.022;9.338;2022-08-19T10:21:10;12.90;;;10.43;;
20230;SDS011;10274;49.022;9.338;2022-08-19T10:23:39;11.20;;;9.73;;
20230;SDS011;10274;49.022;9.338;2022-08-19T10:26:09;10.53;;;9.47;;
20230;SDS011;10274;49.022;9.338;2022-08-19T10:28:37;13.83;;;9.93;;
20230;SDS011;10274;49.022;9.338;2022-08-19T10:31:05;21.77;;;9.90;;
20230;SDS011;10274;49.022;9.338;2022-08-19T10:33:33;11.53;;;8.83;;
20230;SDS011;10274;49.022;9.338;2022-08-19T10:36:00;9.87;;;8.70;;
20230;SDS011;10274;49.022;9.338;2022-08-19T10:38:27;12.60;;;9.33;;
20230;SDS011;10274;49.022;9.338;2022-08-19T10:40:54;9.43;;;8.33;;
20230;SDS011;10274;49.022;9.338;2022-08-19T10:43:21;13.10;;;8.70;;
20230;SDS011;10274;49.022;9.338;2022-08-19T10:45:52;9.53;;;8.60;;
20230;SDS011;10274;49.022;9.338;2022-08-19T10:48:22;11.60;;;8.30;;
20230;SDS011;10274;49.022;9.338;2022-08-19T10:50:48;8.83;;;7.63;;
20230;SDS011;10274;49.022;9.338;2022-08-19T10:53:32;10.15;;;8.35;;
20230;SDS011;10274;49.022;9.338;2022-08-19T10:55:59;9.37;;;7.70;;
20230;SDS011;10274;49.022;9.338;2022-08-19T10:58:43;7.77;;;7.07;;
20230;SDS011;10274;49.022;9.338;2022-08-19T11:01:11;7.60;;;6.83;;
20230;SDS011;10274;49.022;9.338;2022-08-19T11:03:38;7.93;;;6.80;;
20230;SDS011;10274;49.022;9.338;2022-08-19T11:06:06;9.13;;;6.60;;
20230;SDS011;10274;49.022;9.338;2022-08-19T11:08:33;7.60;;;6.17;;
20230;SDS011;10274;49.022;9.338;2022-08-19T11:11:02;6.67;;;5.60;;
20230;SDS011;10274;49.022;9.338;2022-08-19T11:13:31;6.63;;;6.03;;
20230;SDS011;10274;49.022;9.338;2022-08-19T11:16:03;7.18;;;6.20;;
20230;SDS011;10274;49.022;9.338;2022-08-19T11:18:33;6.47;;;5.80;;
20230;SDS011;10274;49.022;9.338;2022-08-19T11:21:05;6.57;;;5.73;;
20230;SDS011;10274;49.022;9.338;2022-08-19T11:23:34;7.60;;;5.57;;
20230;SDS011;10274;49.022;9.338;2022-08-19T11:26:00;7.90;;;5.28;;
20230;SDS011;10274;49.022;9.338;2022-08-19T11:28:27;5.72;;;5.03;;
20230;SDS011;10274;49.022;9.338;2022-08-19T11:30:54;6.78;;;5.28;;
20230;SDS011;10274;49.022;9.338;2022-08-19T11:33:21;5.30;;;4.80;;
20230;SDS011;10274;49.022;9.338;2022-08-19T11:35:49;6.47;;;5.25;;
20230;SDS011;10274;49.022;9.338;2022-08-19T11:38:15;4.45;;;4.05;;
20230;SDS011;10274;49.022;9.338;2022-08-19T11:40:43;6.70;;;4.93;;
20230;SDS011;10274;49.022;9.338;2022-08-19T11:43:10;7.43;;;4.95;;
20230;SDS011;10274;49.022;9.338;2022-08-19T11:45:36;7.78;;;4.35;;
20230;SDS011;10274;49.022;9.338;2022-08-19T11:48:03;5.45;;;4.72;;
20230;SDS011;10274;49.022;9.338;2022-08-19T11:50:30;6.55;;;4.78;;
20230;SDS011;10274;49.022;9.338;2022-08-19T11:52:58;4.85;;;4.45;;
20230;SDS011;10274;49.022;9.338;2022-08-19T11:55:25;6.10;;;4.85;;
20230;SDS011;10274;49.022;9.338;2022-08-19T11:57:51;5.68;;;4.95;;
20230;SDS011;10274;49.022;9.338;2022-08-19T12:00:18;4.90;;;4.40;;
20230;SDS011;10274;49.022;9.338;2022-08-19T12:02:45;7.32;;;4.72;;
20230;SDS011;10274;49.022;9.338;2022-08-19T12:05:12;4.25;;;3.80;;
20230;SDS011;10274;49.022;9.338;2022-08-19T12:07:39;4.75;;;4.30;;
20230;SDS011;10274;49.022;9.338;2022-08-19T12:10:08;4.85;;;4.45;;
20230;SDS011;10274;49.022;9.338;2022-08-19T12:12:35;4.68;;;4.05;;
20230;SDS011;10274;49.022;9.338;2022-08-19T12:15:08;5.93;;;4.38;;
20230;SDS011;10274;49.022;9.338;2022-08-19T12:17:36;4.50;;;4.10;;
20230;SDS011;10274;49.022;9.338;2022-08-19T12:20:07;5.13;;;4.38;;
20230;SDS011;10274;49.022;9.338;2022-08-19T12:22:35;4.05;;;3.75;;
20230;SDS011;10274;49.022;9.338;2022-08-19T12:25:03;4.30;;;3.83;;
20230;SDS011;10274;49.022;9.338;2022-08-19T12:27:32;3.85;;;3.53;;
20230;SDS011;10274;49.022;9.338;2022-08-19T12:30:00;3.65;;;3.35;;
20230;SDS011;10274;49.022;9.338;2022-08-19T12:32:27;4.00;;;3.60;;
20230;SDS011;10274;49.022;9.338;2022-08-19T12:34:54;4.75;;;3.50;;
20230;SDS011;10274;49.022;9.338;2022-08-19T12:37:20;4.32;;;3.92;;
20230;SDS011;10274;49.022;9.338;2022-08-19T12:39:47;3.85;;;3.47;;
20230;SDS011;10274;49.022;9.338;2022-08-19T12:42:14;4.22;;;3.80;;
20230;SDS011;10274;49.022;9.338;2022-08-19T12:44:43;3.58;;;3.28;;
20230;SDS011;10274;49.022;9.338;2022-08-19T12:47:11;3.90;;;3.50;;
20230;SDS011;10274;49.022;9.338;2022-08-19T12:49:39;4.53;;;3.70;;
20230;SDS011;10274;49.022;9.338;2022-08-19T12:52:06;4.20;;;3.80;;
20230;SDS011;10274;49.022;9.338;2022-08-19T12:54:33;4.13;;;3.53;;
20230;SDS011;10274;49.022;9.338;2022-08-19T12:57:04;3.83;;;3.50;;
20230;SDS011;10274;49.022;9.338;2022-08-19T12:59:32;4.43;;;3.63;;
20230;SDS011;10274;49.022;9.338;2022-08-19T13:02:00;4.00;;;3.60;;
20230;SDS011;10274;49.022;9.338;2022-08-19T13:04:27;5.32;;;3.55;;
20230;SDS011;10274;49.022;9.338;2022-08-19T13:06:54;4.10;;;3.70;;
20230;SDS011;10274;49.022;9.338;2022-08-19T13:09:22;3.53;;;3.22;;
20230;SDS011;10274;49.022;9.338;2022-08-19T13:11:49;5.78;;;4.00;;
20230;SDS011;10274;49.022;9.338;2022-08-19T13:14:16;5.03;;;3.58;;
20230;SDS011;10274;49.022;9.338;2022-08-19T13:16:43;5.97;;;3.78;;
20230;SDS011;10274;49.022;9.338;2022-08-19T13:19:13;3.92;;;3.60;;
20230;SDS011;10274;49.022;9.338;2022-08-19T13:21:39;4.95;;;3.45;;
20230;SDS011;10274;49.022;9.338;2022-08-19T13:24:06;4.38;;;3.97;;
20230;SDS011;10274;49.022;9.338;2022-08-19T13:26:33;4.47;;;3.80;;
20230;SDS011;10274;49.022;9.338;2022-08-19T13:28:59;4.00;;;3.53;;
20230;SDS011;10274;49.022;9.338;2022-08-19T13:31:43;4.43;;;3.63;;
20230;SDS011;10274;49.022;9.338;2022-08-19T13:34:30;3.67;;;3.38;;
20230;SDS011;10274;49.022;9.338;2022-08-19T13:36:59;4.65;;;4.20;;
20230;SDS011;10274;49.022;9.338;2022-08-19T13:39:27;4.50;;;3.75;;
20230;SDS011;10274;49.022;9.338;2022-08-19T13:41:54;3.58;;;3.22;;
20230;SDS011;10274;49.022;9.338;2022-08-19T13:44:21;3.75;;;3.33;;
20230;SDS011;10274;49.022;9.338;2022-08-19T13:46:48;3.95;;;3.55;;
20230;SDS011;10274;49.022;9.338;2022-08-19T13:49:17;3.92;;;3.50;;
20230;SDS011;10274;49.022;9.338;2022-08-19T13:51:46;6.15;;;3.75;;
20230;SDS011;10274;49.022;9.338;2022-08-19T13:54:13;4.60;;;3.65;;
20230;SDS011;10274;49.022;9.338;2022-08-19T13:56:40;5.80;;;3.53;;
20230;SDS011;10274;49.022;9.338;2022-08-19T13:59:07;5.97;;;3.33;;
20230;SDS011;10274;49.022;9.338;2022-08-19T14:01:34;3.85;;;3.55;;
20230;SDS011;10274;49.022;9.338;2022-08-19T14:04:00;5.60;;;4.10;;
20230;SDS011;10274;49.022;9.338;2022-08-19T14:06:27;7.72;;;5.05;;
20230;SDS011;10274;49.022;9.338;2022-08-19T14:08:55;6.63;;;5.22;;
20230;SDS011;10274;49.022;9.338;2022-08-19T14:11:22;7.18;;;4.60;;
20230;SDS011;10274;49.022;9.338;2022-08-19T14:13:49;7.47;;;5.25;;
20230;SDS011;10274;49.022;9.338;2022-08-19T14:16:15;7.55;;;5.15;;
20230;SDS011;10274;49.022;9.338;2022-08-19T14:18:43;9.37;;;5.30;;
20230;SDS011;10274;49.022;9.338;2022-08-19T14:21:14;10.43;;;4.93;;
20230;SDS011;10274;49.022;9.338;2022-08-19T14:23:42;6.17;;;4.90;;
20230;SDS011;10274;49.022;9.338;2022-08-19T14:26:11;5.67;;;5.17;;
20230;SDS011;10274;49.022;9.338;2022-08-19T14:28:39;5.73;;;5.20;;
20230;SDS011;10274;49.022;9.338;2022-08-19T14:31:06;6.57;;;5.20;;
20230;SDS011;10274;49.022;9.338;2022-08-19T14:33:33;5.77;;;5.27;;
20230;SDS011;10274;49.022;9.338;2022-08-19T14:36:00;5.90;;;4.83;;